Anna, Ohio
Current Conditions -  °F | °C
As of 8:53 AM on Wednesday 26 Nov 2014 (Local Time) from KAXV Reporting Station
Overcast Overcast  
Wind Chill: -2°   Ceiling: 1400
Heat Index: -2°   Visibility: 10mi
Dew Point: -3°   Wind: 3mph
Humidity: 93%   Direction: 40°NE
Pressure: 30.15"   Gusts: NA
Location:  40.39°N, 84.17°W
Report Text: KAXV 261353Z AUTO 04003KT 10SM OVC014 M02/M03 A3015 RMK AO2
Loading
Personal Weather Stations






























Interactive Weather Map New forecast layout! Learn more

10-Day Weather Forecast

Advertisements
Track Severe Weather on mobile